createdAt,value
2022-11-02T00:02:18.818Z,3.60
2022-11-02T00:04:46.907Z,3.07
2022-11-02T00:07:14.934Z,3.67
2022-11-02T00:09:42.891Z,3.10
2022-11-02T00:12:12.224Z,3.00
2022-11-02T00:14:40.146Z,2.90
2022-11-02T00:17:09.506Z,2.83
2022-11-02T00:19:37.621Z,3.13
2022-11-02T00:22:05.965Z,3.23
2022-11-02T00:24:34.843Z,3.00
2022-11-02T00:27:03.300Z,3.67
2022-11-02T00:29:34.344Z,3.20
2022-11-02T00:32:02.582Z,3.50
2022-11-02T00:34:30.564Z,2.90
2022-11-02T00:36:58.905Z,3.00
2022-11-02T00:39:26.942Z,2.60
2022-11-02T00:41:54.902Z,3.10
2022-11-02T00:44:22.882Z,2.80
2022-11-02T00:46:53.327Z,3.33
2022-11-02T00:49:21.327Z,4.00
2022-11-02T00:51:49.268Z,3.47
2022-11-02T00:54:17.281Z,3.17
2022-11-02T00:56:45.291Z,3.20
2022-11-02T00:59:13.309Z,3.47
2022-11-02T01:01:41.348Z,4.37
2022-11-02T01:04:10.795Z,3.40
2022-11-02T01:06:39.053Z,3.50
2022-11-02T01:09:07.136Z,3.73
2022-11-02T01:11:35.089Z,3.50
2022-11-02T01:14:03.454Z,3.30
2022-11-02T01:16:32.145Z,3.30
2022-11-02T01:19:00.629Z,3.40
2022-11-02T01:21:30.132Z,3.17
2022-11-02T01:23:58.112Z,3.73
2022-11-02T01:26:26.205Z,3.67
2022-11-02T01:28:55.825Z,2.97
2022-11-02T01:31:24.093Z,3.10
2022-11-02T01:33:52.254Z,3.80
2022-11-02T01:38:51.736Z,3.10
2022-11-02T01:41:20.080Z,2.70
2022-11-02T01:43:52.699Z,3.03
2022-11-02T01:46:25.974Z,3.20
2022-11-02T01:49:03.652Z,3.00
2022-11-02T01:51:37.046Z,3.00
2022-11-02T01:54:11.351Z,3.03
2022-11-02T01:56:42.343Z,3.00
2022-11-02T01:59:18.291Z,3.13
2022-11-02T02:01:47.575Z,3.20
2022-11-02T02:04:16.896Z,3.03
2022-11-02T02:06:45.870Z,3.13
2022-11-02T02:09:16.276Z,3.53
2022-11-02T02:11:44.266Z,3.80
2022-11-02T02:14:17.446Z,3.57
2022-11-02T02:17:06.322Z,3.00
2022-11-02T02:19:45.601Z,3.07
2022-11-02T02:22:37.609Z,3.00
2022-11-02T02:25:27.278Z,2.70
2022-11-02T02:28:19.592Z,3.00
2022-11-02T02:30:57.254Z,2.93
2022-11-02T02:33:33.830Z,3.33
2022-11-02T02:36:11.501Z,2.63
2022-11-02T02:38:47.988Z,2.70
2022-11-02T02:41:25.925Z,2.50
2022-11-02T02:43:59.653Z,2.80
2022-11-02T02:46:36.390Z,2.63
2022-11-02T02:49:11.022Z,2.70
2022-11-02T02:51:41.805Z,2.90
2022-11-02T02:54:16.119Z,2.60
2022-11-02T02:56:50.260Z,2.40
2022-11-02T02:59:25.813Z,2.40
2022-11-02T03:01:57.044Z,2.30
2022-11-02T03:04:26.191Z,2.40
2022-11-02T03:07:00.433Z,2.60
2022-11-02T03:09:38.691Z,2.43
2022-11-02T03:12:24.141Z,2.33
2022-11-02T03:15:10.433Z,2.10
2022-11-02T03:17:53.829Z,2.33
2022-11-02T03:20:29.501Z,2.30
2022-11-02T03:23:13.536Z,2.90
2022-11-02T03:25:55.152Z,2.37
2022-11-02T03:28:34.609Z,1.67
2022-11-02T03:31:11.050Z,2.17
2022-11-02T03:33:47.599Z,2.00
2022-11-02T03:36:21.863Z,2.20
2022-11-02T03:38:57.432Z,2.00
2022-11-02T03:41:28.711Z,1.97
2022-11-02T03:44:04.915Z,1.70
2022-11-02T03:46:39.606Z,1.90
2022-11-02T03:49:14.468Z,2.00
2022-11-02T03:51:46.859Z,1.97
2022-11-02T03:54:26.141Z,2.37
2022-11-02T03:59:36.649Z,1.77
2022-11-02T04:02:06.073Z,1.90
2022-11-02T04:04:34.200Z,1.90
2022-11-02T04:07:02.292Z,2.00
2022-11-02T04:09:30.307Z,2.63
2022-11-02T04:12:15.903Z,1.90
2022-11-02T04:14:43.877Z,1.97
2022-11-02T04:19:59.111Z,1.93
2022-11-02T04:22:44.988Z,1.83
2022-11-02T04:25:18.474Z,1.90
2022-11-02T04:27:49.536Z,2.60
2022-11-02T04:30:21.068Z,2.23
2022-11-02T04:33:09.459Z,2.20
2022-11-02T04:35:38.335Z,2.00
2022-11-02T04:38:29.484Z,2.20
2022-11-02T04:41:11.394Z,1.93
2022-11-02T04:43:39.356Z,2.00
2022-11-02T04:46:07.342Z,2.07
2022-11-02T04:48:36.646Z,1.83
2022-11-02T04:51:04.787Z,1.90
2022-11-02T04:53:32.743Z,2.17
2022-11-02T04:56:00.716Z,1.80
2022-11-02T04:58:28.738Z,1.70
2022-11-02T05:00:56.702Z,2.10
2022-11-02T05:03:24.675Z,1.97
2022-11-02T05:05:56.777Z,1.90
2022-11-02T05:08:24.754Z,1.70
2022-11-02T05:10:56.339Z,2.00
2022-11-02T05:13:25.704Z,1.90
2022-11-02T05:15:56.497Z,2.10
2022-11-02T05:18:25.237Z,2.30
2022-11-02T05:20:54.689Z,2.10
2022-11-02T05:23:25.204Z,2.07
2022-11-02T05:25:58.490Z,2.20
2022-11-02T05:28:28.389Z,2.07
2022-11-02T05:30:58.708Z,2.33
2022-11-02T05:33:30.489Z,2.20
2022-11-02T05:36:00.518Z,2.10
2022-11-02T05:38:30.779Z,1.90
2022-11-02T05:41:00.903Z,1.97
2022-11-02T05:43:29.380Z,2.10
2022-11-02T05:46:00.566Z,2.00
2022-11-02T05:48:32.056Z,1.97
2022-11-02T05:51:02.349Z,1.80
2022-11-02T05:53:34.057Z,1.93
2022-11-02T05:56:04.381Z,2.63
2022-11-02T05:58:34.694Z,2.00
2022-11-02T06:01:04.887Z,1.90
2022-11-02T06:03:33.470Z,2.10
2022-11-02T06:06:04.192Z,2.10
2022-11-02T06:08:35.911Z,2.23
2022-11-02T06:11:06.188Z,1.93
2022-11-02T06:13:34.796Z,1.90
2022-11-02T06:16:04.056Z,2.13
2022-11-02T06:18:32.466Z,2.10
2022-11-02T06:21:01.685Z,1.97
2022-11-02T06:23:30.483Z,2.00
2022-11-02T06:26:01.343Z,2.30
2022-11-02T06:28:31.130Z,1.97
2022-11-02T06:30:59.709Z,2.23
2022-11-02T06:33:27.717Z,2.40
2022-11-02T06:35:56.382Z,2.27
2022-11-02T06:38:25.233Z,2.40
2022-11-02T06:40:59.324Z,2.30
2022-11-02T06:43:27.647Z,2.13
2022-11-02T06:45:56.722Z,2.33
2022-11-02T06:48:28.607Z,2.57
2022-11-02T06:50:59.629Z,2.67
2022-11-02T06:53:27.779Z,2.23
2022-11-02T06:55:57.824Z,2.47
2022-11-02T06:58:28.181Z,2.37
2022-11-02T07:01:00.845Z,2.40
2022-11-02T07:03:30.033Z,2.60
2022-11-02T07:05:59.036Z,2.60
2022-11-02T07:08:28.589Z,3.07
2022-11-02T07:10:57.023Z,2.30
2022-11-02T07:13:26.426Z,2.47
2022-11-02T07:15:55.804Z,2.10
2022-11-02T07:18:24.057Z,2.20
2022-11-02T07:20:52.495Z,2.43
2022-11-02T07:23:23.626Z,2.20
2022-11-02T07:25:51.800Z,2.20
2022-11-02T07:28:20.003Z,2.23
2022-11-02T07:30:50.003Z,1.90
2022-11-02T07:33:18.019Z,2.50
2022-11-02T07:35:45.996Z,2.00
2022-11-02T07:38:14.010Z,2.33
2022-11-02T07:40:42.029Z,2.37
2022-11-02T07:43:10.277Z,2.60
2022-11-02T07:45:38.375Z,2.15
2022-11-02T07:48:07.765Z,2.23
2022-11-02T07:50:35.766Z,2.10
2022-11-02T07:53:03.995Z,2.00
2022-11-02T07:55:33.044Z,2.63
2022-11-02T07:58:03.506Z,2.10
2022-11-02T08:00:35.331Z,2.00
2022-11-02T08:03:04.944Z,2.08
2022-11-02T08:05:37.743Z,2.20
2022-11-02T08:08:08.748Z,2.30
2022-11-02T08:10:40.365Z,2.53
2022-11-02T08:13:09.348Z,1.88
2022-11-02T08:15:37.739Z,2.05
2022-11-02T08:18:09.155Z,2.72
2022-11-02T08:20:38.703Z,1.95
2022-11-02T08:23:07.907Z,1.95
2022-11-02T08:25:38.262Z,2.30
2022-11-02T08:28:08.459Z,2.83
2022-11-02T08:30:38.810Z,2.47
2022-11-02T08:33:11.615Z,2.10
2022-11-02T08:35:41.527Z,2.10
2022-11-02T08:38:10.512Z,1.88
2022-11-02T08:40:39.842Z,2.13
2022-11-02T08:43:10.537Z,2.30
2022-11-02T08:48:29.399Z,1.73
2022-11-02T08:50:58.851Z,2.13
2022-11-02T08:53:26.807Z,2.50
2022-11-02T08:55:54.818Z,2.47
2022-11-02T08:58:22.762Z,2.50
2022-11-02T09:00:53.892Z,2.35
2022-11-02T09:03:26.901Z,2.55
2022-11-02T09:06:02.002Z,2.28
2022-11-02T09:08:31.274Z,2.50
2022-11-02T09:11:03.080Z,2.30
2022-11-02T09:13:31.510Z,2.67
2022-11-02T09:16:01.320Z,2.03
2022-11-02T09:18:29.686Z,2.58
2022-11-02T09:21:03.631Z,2.10
2022-11-02T09:23:32.303Z,2.50
2022-11-02T09:26:00.810Z,1.90
2022-11-02T09:28:28.883Z,1.98
2022-11-02T09:30:56.926Z,2.22
2022-11-02T09:33:25.018Z,2.08
2022-11-02T09:35:53.014Z,2.58
2022-11-02T09:38:22.377Z,2.13
2022-11-02T09:41:06.839Z,1.98
2022-11-02T09:43:48.709Z,2.00
2022-11-02T09:46:22.851Z,2.08
2022-11-02T09:48:57.042Z,2.50
2022-11-02T09:51:32.806Z,1.88
2022-11-02T09:54:13.332Z,2.28
2022-11-02T09:56:46.258Z,2.13
2022-11-02T09:59:17.082Z,2.10
2022-11-02T10:02:02.048Z,2.00
2022-11-02T10:05:01.678Z,2.47
2022-11-02T10:08:06.266Z,1.95
2022-11-02T10:10:40.906Z,2.97
2022-11-02T10:13:34.195Z,2.50
2022-11-02T10:16:08.891Z,2.45
2022-11-02T10:18:40.108Z,2.00
2022-11-02T10:21:14.673Z,1.98
2022-11-02T10:23:48.551Z,2.08
2022-11-02T10:26:29.910Z,2.08
2022-11-02T10:29:07.769Z,2.22
2022-11-02T10:31:36.007Z,1.85
2022-11-02T10:34:23.453Z,2.00
2022-11-02T10:37:14.384Z,1.77
2022-11-02T10:39:55.518Z,2.13
2022-11-02T10:42:53.859Z,3.08
2022-11-02T10:46:10.305Z,3.72
2022-11-02T10:48:51.385Z,2.40
2022-11-02T10:51:21.813Z,2.30
2022-11-02T10:53:53.286Z,1.60
2022-11-02T10:56:24.286Z,2.15
2022-11-02T10:59:03.112Z,1.92
2022-11-02T11:01:33.440Z,1.80
2022-11-02T11:04:03.807Z,2.10
2022-11-02T11:06:36.921Z,1.77
2022-11-02T11:09:16.883Z,1.67
2022-11-02T11:11:56.630Z,1.80
2022-11-02T11:20:36.262Z,1.77
2022-11-02T11:23:22.182Z,1.90
2022-11-02T11:26:00.515Z,1.98
2022-11-02T11:28:40.094Z,1.67
2022-11-02T11:31:13.485Z,1.42
2022-11-02T11:33:49.205Z,1.48
2022-11-02T11:36:33.068Z,1.65
2022-11-02T11:39:04.448Z,1.70
2022-11-02T11:41:35.151Z,1.70
2022-11-02T11:44:04.278Z,1.60
2022-11-02T11:46:45.095Z,1.80
2022-11-02T11:49:35.871Z,1.30
2022-11-02T11:52:21.075Z,1.00
2022-11-02T11:54:58.234Z,1.42
2022-11-02T11:57:31.476Z,1.45
2022-11-02T12:00:04.664Z,1.40
2022-11-02T12:02:41.001Z,1.20
2022-11-02T12:05:16.215Z,1.35
2022-11-02T12:08:21.193Z,1.40
2022-11-02T12:11:16.367Z,2.10
2022-11-02T12:14:12.189Z,1.30
2022-11-02T12:17:08.566Z,1.50
2022-11-02T12:19:59.481Z,1.20
2022-11-02T12:22:43.848Z,1.60
2022-11-02T12:25:28.599Z,1.30
2022-11-02T12:28:09.064Z,1.48
2022-11-02T12:30:57.014Z,1.40
2022-11-02T12:33:53.040Z,1.52
2022-11-02T12:37:11.127Z,1.50
2022-11-02T12:39:58.376Z,1.25
2022-11-02T12:42:33.162Z,1.55
2022-11-02T12:45:22.764Z,1.60
2022-11-02T12:47:58.843Z,1.70
2022-11-02T12:50:53.019Z,1.48
2022-11-02T12:53:38.960Z,1.52
2022-11-02T12:56:17.347Z,1.67
2022-11-02T12:58:47.073Z,1.35
2022-11-02T13:01:27.246Z,1.38
2022-11-02T13:04:05.917Z,1.23
2022-11-02T13:06:40.731Z,1.35
2022-11-02T13:09:14.998Z,1.60
2022-11-02T13:11:48.236Z,1.65
2022-11-02T13:14:21.852Z,1.65
2022-11-02T13:16:58.274Z,1.42
2022-11-02T13:19:36.226Z,1.33
2022-11-02T13:22:09.596Z,1.50
2022-11-02T13:24:46.418Z,1.52
2022-11-02T13:27:36.541Z,1.58
2022-11-02T13:30:15.982Z,1.73
2022-11-02T13:32:49.186Z,1.48
2022-11-02T13:35:25.185Z,1.25
2022-11-02T13:38:03.275Z,1.15
2022-11-02T13:40:41.212Z,1.15
2022-11-02T13:44:01.222Z,1.50
2022-11-02T13:47:02.754Z,1.25
2022-11-02T13:49:37.302Z,1.20
2022-11-02T13:52:14.998Z,1.60
2022-11-02T13:54:47.723Z,1.10
2022-11-02T13:57:40.951Z,1.48
2022-11-02T14:00:32.828Z,1.27
2022-11-02T14:03:08.854Z,1.15
2022-11-02T14:05:47.839Z,1.42
2022-11-02T14:08:26.511Z,1.25
2022-11-02T14:11:24.864Z,1.50
2022-11-02T14:14:22.104Z,1.98
2022-11-02T14:17:14.763Z,1.20
2022-11-02T14:20:04.231Z,1.20
2022-11-02T14:22:33.006Z,1.23
2022-11-02T14:25:19.070Z,1.42
2022-11-02T14:27:47.006Z,1.10
2022-11-02T14:30:45.487Z,1.25
2022-11-02T14:33:51.649Z,1.10
2022-11-02T14:36:46.186Z,1.52
2022-11-02T14:39:26.630Z,1.30
2022-11-02T14:42:20.481Z,1.30
2022-11-02T14:45:23.626Z,1.40
2022-11-02T14:47:59.462Z,1.10
2022-11-02T14:50:27.984Z,1.27
2022-11-02T14:53:05.811Z,1.25
2022-11-02T14:55:36.914Z,1.80
2022-11-02T14:58:11.293Z,1.88
2022-11-02T15:00:58.006Z,1.35
2022-11-02T15:03:35.671Z,1.65
2022-11-02T15:06:13.639Z,1.67
2022-11-02T15:08:55.645Z,1.70
2022-11-02T15:11:49.038Z,1.20
2022-11-02T15:14:52.600Z,1.55
2022-11-02T15:17:53.472Z,1.98
2022-11-02T15:20:35.328Z,2.00
2022-11-02T15:23:30.067Z,1.48
2022-11-02T15:26:05.951Z,1.70
2022-11-02T15:28:35.883Z,1.55
2022-11-02T15:31:14.942Z,1.60
2022-11-02T15:33:47.796Z,1.73
2022-11-02T15:36:24.791Z,1.30
2022-11-02T15:38:54.776Z,1.27
2022-11-02T15:41:39.106Z,1.33
2022-11-02T15:44:49.537Z,1.40
2022-11-02T15:47:34.625Z,1.90
2022-11-02T15:50:28.458Z,1.70
2022-11-02T15:53:24.661Z,1.67
2022-11-02T15:56:15.211Z,1.92
2022-11-02T15:59:12.515Z,1.83
2022-11-02T16:01:41.475Z,2.50
2022-11-02T16:04:19.921Z,2.50
2022-11-02T16:06:49.420Z,2.60
2022-11-02T16:09:33.003Z,3.10
2022-11-02T16:12:12.919Z,2.97
2022-11-02T16:14:42.499Z,4.00
2022-11-02T16:17:21.915Z,3.67
2022-11-02T16:19:50.304Z,2.87
2022-11-02T16:22:26.984Z,3.33
2022-11-02T16:24:55.624Z,3.50
2022-11-02T16:27:24.223Z,2.77
2022-11-02T16:29:53.588Z,2.83
2022-11-02T16:32:21.852Z,2.58
2022-11-02T16:34:50.087Z,2.53
2022-11-02T16:37:20.126Z,2.23
2022-11-02T16:39:48.968Z,1.90
2022-11-02T16:42:20.082Z,1.97
2022-11-02T16:44:59.465Z,1.90
2022-11-02T16:47:38.503Z,2.57
2022-11-02T16:50:21.157Z,2.10
2022-11-02T16:52:57.317Z,2.47
2022-11-02T16:55:42.188Z,2.60
2022-11-02T16:58:21.087Z,2.70
2022-11-02T17:01:00.168Z,2.53
2022-11-02T17:03:33.241Z,2.40
2022-11-02T17:06:05.972Z,2.90
2022-11-02T17:08:37.724Z,3.43
2022-11-02T17:11:13.456Z,3.50
2022-11-02T17:13:50.098Z,3.67
2022-11-02T17:16:19.602Z,3.47
2022-11-02T17:18:47.830Z,3.60
2022-11-02T17:21:29.816Z,4.20
2022-11-02T17:24:00.123Z,3.60
2022-11-02T17:26:33.626Z,4.43
2022-11-02T17:29:03.342Z,4.80
2022-11-02T17:31:38.037Z,5.07
2022-11-02T17:34:11.933Z,4.47
2022-11-02T17:36:43.795Z,4.57
2022-11-02T17:39:15.528Z,3.40
2022-11-02T17:42:01.662Z,3.50
2022-11-02T17:44:29.579Z,2.97
2022-11-02T17:46:59.464Z,3.43
2022-11-02T17:49:27.395Z,3.60
2022-11-02T17:51:55.376Z,2.93
2022-11-02T17:54:23.425Z,2.90
2022-11-02T17:56:51.389Z,3.23
2022-11-02T17:59:19.310Z,2.93
2022-11-02T18:01:47.348Z,2.93
2022-11-02T18:04:16.774Z,2.90
2022-11-02T18:06:44.662Z,2.80
2022-11-02T18:09:14.399Z,2.30
2022-11-02T18:11:42.637Z,3.23
2022-11-02T18:14:16.744Z,2.87
2022-11-02T18:16:45.860Z,2.90
2022-11-02T18:19:14.935Z,3.20
2022-11-02T18:21:44.178Z,2.60
2022-11-02T18:24:12.148Z,3.00
2022-11-02T18:26:44.132Z,2.70
2022-11-02T18:29:14.973Z,2.93
2022-11-02T18:31:42.893Z,3.37
2022-11-02T18:34:11.217Z,3.20
2022-11-02T18:36:39.951Z,2.87
2022-11-02T18:39:09.368Z,2.77
2022-11-02T18:41:37.507Z,3.53
2022-11-02T18:44:13.616Z,3.10
2022-11-02T18:46:42.765Z,3.47
2022-11-02T18:49:10.677Z,3.40
2022-11-02T18:51:42.772Z,3.03
2022-11-02T18:54:14.881Z,3.30
2022-11-02T18:56:42.788Z,3.03
2022-11-02T18:59:10.892Z,3.53
2022-11-02T19:01:38.916Z,4.10
2022-11-02T19:04:07.041Z,4.00
2022-11-02T19:06:53.196Z,4.40
2022-11-02T19:09:26.849Z,3.60
2022-11-02T19:12:03.791Z,4.10
2022-11-02T19:14:36.295Z,3.90
2022-11-02T19:17:05.320Z,4.00
2022-11-02T19:19:34.250Z,4.63
2022-11-02T19:22:02.296Z,4.13
2022-11-02T19:24:31.583Z,3.90
2022-11-02T19:26:59.814Z,4.60
2022-11-02T19:29:27.750Z,4.30
2022-11-02T19:31:55.639Z,4.37
2022-11-02T19:34:23.900Z,4.17
2022-11-02T19:36:51.827Z,4.37
2022-11-02T19:39:19.685Z,4.50
2022-11-02T19:41:52.212Z,4.77
2022-11-02T19:44:20.254Z,4.30
2022-11-02T19:46:48.732Z,4.50
2022-11-02T19:49:19.489Z,3.87
2022-11-02T19:51:47.422Z,4.17
2022-11-02T19:54:15.611Z,4.00
2022-11-02T19:56:43.558Z,4.20
2022-11-02T19:59:13.044Z,4.10
2022-11-02T20:01:43.007Z,4.33
2022-11-02T20:04:11.698Z,3.80
2022-11-02T20:06:42.240Z,4.23
2022-11-02T20:09:16.694Z,3.90
2022-11-02T20:11:46.238Z,3.70
2022-11-02T20:14:17.674Z,3.80
2022-11-02T20:16:58.357Z,3.80
2022-11-02T20:19:32.406Z,4.13
2022-11-02T20:22:00.339Z,4.00
2022-11-02T20:24:28.300Z,3.73
2022-11-02T20:27:02.525Z,3.97
2022-11-02T20:29:31.801Z,3.97
2022-11-02T20:31:59.736Z,3.90
2022-11-02T20:34:27.778Z,4.27
2022-11-02T20:36:55.751Z,4.60
2022-11-02T20:39:23.640Z,4.47
2022-11-02T20:41:55.755Z,3.97
2022-11-02T20:44:23.936Z,4.13
2022-11-02T20:46:53.783Z,4.40
2022-11-02T20:49:44.255Z,5.57
2022-11-02T20:52:10.718Z,4.50
2022-11-02T20:54:38.705Z,4.70
2022-11-02T20:57:07.001Z,4.80
2022-11-02T20:59:34.979Z,4.50
2022-11-02T21:02:04.677Z,4.97
2022-11-02T21:04:32.800Z,4.40
2022-11-02T21:07:00.817Z,4.17
2022-11-02T21:09:30.468Z,4.17
2022-11-02T21:12:16.229Z,4.00
2022-11-02T21:14:44.316Z,4.30
2022-11-02T21:17:13.692Z,4.33
2022-11-02T21:19:42.083Z,4.47
2022-11-02T21:22:10.141Z,3.87
2022-11-02T21:24:38.126Z,3.83
2022-11-02T21:27:06.980Z,3.43
2022-11-02T21:29:35.914Z,3.77
2022-11-02T21:32:04.008Z,3.77
2022-11-02T21:34:33.340Z,3.60
2022-11-02T21:37:03.031Z,3.90
2022-11-02T21:39:31.028Z,3.90
2022-11-02T21:41:59.829Z,3.70
2022-11-02T21:44:27.897Z,3.80
2022-11-02T21:46:55.970Z,3.80
2022-11-02T21:49:24.109Z,3.73
2022-11-02T21:51:53.407Z,3.63
2022-11-02T21:54:21.410Z,3.60
2022-11-02T21:56:50.316Z,3.90
2022-11-02T21:59:18.457Z,3.30
2022-11-02T22:01:47.157Z,4.40
2022-11-02T22:04:19.463Z,4.77
2022-11-02T22:06:47.661Z,4.03
2022-11-02T22:09:17.183Z,3.73
2022-11-02T22:11:45.288Z,3.70
2022-11-02T22:14:13.246Z,3.63
2022-11-02T22:16:43.906Z,3.87
2022-11-02T22:19:15.194Z,3.57
2022-11-02T22:21:46.116Z,3.60
2022-11-02T22:24:14.233Z,3.47
2022-11-02T22:26:43.582Z,4.30
2022-11-02T22:29:11.884Z,3.50
2022-11-02T22:31:41.801Z,3.43
2022-11-02T22:34:13.183Z,3.90
2022-11-02T22:36:44.177Z,3.87
2022-11-02T22:39:13.952Z,3.47
2022-11-02T22:41:45.557Z,3.00
2022-11-02T22:44:15.939Z,3.27
2022-11-02T22:46:46.897Z,3.47
2022-11-02T22:49:16.665Z,4.03
2022-11-02T22:51:47.735Z,3.50
2022-11-02T22:54:18.305Z,3.20
2022-11-02T22:56:49.703Z,3.40
2022-11-02T22:59:17.997Z,2.67
2022-11-02T23:01:46.250Z,3.63
2022-11-02T23:04:14.576Z,2.90
2022-11-02T23:06:42.627Z,3.10
2022-11-02T23:09:12.967Z,3.90
2022-11-02T23:11:40.111Z,3.67
2022-11-02T23:14:12.867Z,3.60
2022-11-02T23:16:43.238Z,3.40
2022-11-02T23:19:30.280Z,2.83
2022-11-02T23:22:18.594Z,3.13
2022-11-02T23:25:06.785Z,3.40
2022-11-02T23:27:58.322Z,3.00
2022-11-02T23:30:48.034Z,3.10
2022-11-02T23:33:16.856Z,3.20
2022-11-02T23:36:02.620Z,3.40
2022-11-02T23:38:51.101Z,3.47
2022-11-02T23:41:21.717Z,3.73
2022-11-02T23:43:50.037Z,4.00
2022-11-02T23:46:19.529Z,3.80
2022-11-02T23:48:49.801Z,3.67
2022-11-02T23:51:38.512Z,3.40
2022-11-02T23:54:24.246Z,3.40
2022-11-02T23:56:52.286Z,3.67
2022-11-02T23:59:20.265Z,3.80
